Lincoln, Idaho
Current Conditions -  °F | °C
As of 6:53 PM on Monday 24 Nov 2014 (Local Time) from KIDA Reporting Station
Broken Clouds Broken Clouds  
Wind Chill: 24°   Ceiling: 12000
Heat Index: 33°   Visibility: 10mi
Dew Point: 25°   Wind: 13mph
Humidity: 72%   Direction: 180°S
Pressure: 30.34"   Gusts: NA
Location:  43.498°N, 111.73°W
Report Text: KIDA 250153Z 18011KT 10SM FEW075 BKN120 01/M04 A3034 RMK AO2 SLP303 T00061039
Loading
Personal Weather Stations






























Interactive Weather Map New forecast layout! Learn more

10-Day Weather Forecast

Advertisements
Track Severe Weather on mobile